createdAt,value
2019-01-17T00:03:36.223Z,90.66
2019-01-17T00:08:55.860Z,93.29
2019-01-17T00:14:04.022Z,96.16
2019-01-17T00:19:25.204Z,96.69
2019-01-17T00:24:33.047Z,98.20
2019-01-17T00:29:40.855Z,100.00
2019-01-17T00:34:58.092Z,100.00
2019-01-17T00:40:11.865Z,100.00
2019-01-17T00:45:17.059Z,100.00
2019-01-17T00:50:36.737Z,100.00
2019-01-17T00:55:58.042Z,100.00
2019-01-17T01:01:20.810Z,100.00
2019-01-17T01:06:28.349Z,100.00
2019-01-17T01:11:35.852Z,100.00
2019-01-17T01:16:52.496Z,100.00
2019-01-17T01:22:00.253Z,100.00
2019-01-17T01:27:14.446Z,100.00
2019-01-17T01:32:31.435Z,100.00
2019-01-17T01:37:51.434Z,100.00
2019-01-17T01:43:02.265Z,100.00
2019-01-17T01:48:18.861Z,100.00
2019-01-17T01:53:22.285Z,100.00
2019-01-17T01:58:25.828Z,100.00
2019-01-17T02:03:29.268Z,100.00
2019-01-17T02:08:32.693Z,100.00
2019-01-17T02:13:36.399Z,100.00
2019-01-17T02:18:39.880Z,100.00
2019-01-17T02:23:43.342Z,100.00
2019-01-17T02:28:46.768Z,100.00
2019-01-17T02:33:50.211Z,100.00
2019-01-17T02:38:53.713Z,100.00
2019-01-17T02:43:57.210Z,100.00
2019-01-17T02:49:07.000Z,100.00
2019-01-17T02:54:10.530Z,100.00
2019-01-17T02:59:24.802Z,100.00
2019-01-17T03:04:34.790Z,100.00
2019-01-17T03:09:35.841Z,100.00
2019-01-17T03:14:41.922Z,100.00
2019-01-17T03:19:47.406Z,100.00
2019-01-17T03:24:56.028Z,100.00
2019-01-17T03:30:04.222Z,100.00
2019-01-17T03:35:07.902Z,100.00
2019-01-17T03:40:14.200Z,100.00
2019-01-17T03:45:20.357Z,100.00
2019-01-17T03:50:23.812Z,100.00
2019-01-17T03:55:27.564Z,100.00
2019-01-17T04:00:31.492Z,100.00
2019-01-17T04:05:34.998Z,100.00
2019-01-17T04:10:38.439Z,100.00
2019-01-17T04:15:41.875Z,100.00
2019-01-17T04:20:45.336Z,100.00
2019-01-17T04:25:50.296Z,100.00
2019-01-17T04:30:53.819Z,100.00
2019-01-17T04:35:57.223Z,100.00
2019-01-17T04:41:00.776Z,100.00
2019-01-17T04:46:04.323Z,100.00
2019-01-17T04:51:07.810Z,100.00
2019-01-17T04:56:11.311Z,100.00
2019-01-17T05:01:16.267Z,100.00
2019-01-17T05:06:19.775Z,100.00
2019-01-17T05:11:23.213Z,100.00
2019-01-17T05:16:26.647Z,100.00
2019-01-17T05:21:30.170Z,100.00
2019-01-17T05:26:33.682Z,100.00
2019-01-17T05:31:37.286Z,100.00
2019-01-17T05:36:40.726Z,100.00
2019-01-17T05:41:44.238Z,100.00
2019-01-17T05:46:47.770Z,100.00
2019-01-17T05:51:51.205Z,100.00
2019-01-17T05:56:54.626Z,100.00
2019-01-17T06:01:58.053Z,100.00
2019-01-17T06:07:01.518Z,100.00
2019-01-17T06:12:05.087Z,100.00
2019-01-17T06:17:08.676Z,100.00
2019-01-17T06:22:12.103Z,100.00
2019-01-17T06:27:15.603Z,100.00
2019-01-17T06:32:19.029Z,100.00
2019-01-17T06:37:22.487Z,100.00
2019-01-17T06:42:25.921Z,100.00
2019-01-17T06:47:29.377Z,100.00
2019-01-17T06:52:32.896Z,100.00
2019-01-17T06:57:36.425Z,100.00
2019-01-17T07:02:39.994Z,100.00
2019-01-17T07:07:43.548Z,100.00
2019-01-17T07:12:47.009Z,100.00
2019-01-17T07:17:50.538Z,100.00
2019-01-17T07:22:54.004Z,100.00
2019-01-17T07:27:59.555Z,100.00
2019-01-17T07:33:03.068Z,100.00
2019-01-17T07:38:06.737Z,100.00
2019-01-17T07:43:10.241Z,100.00
2019-01-17T07:48:13.662Z,100.00
2019-01-17T07:53:17.072Z,100.00
2019-01-17T07:58:20.495Z,100.00
2019-01-17T08:03:23.935Z,100.00
2019-01-17T08:08:27.382Z,100.00
2019-01-17T08:13:30.879Z,100.00
2019-01-17T08:18:34.338Z,100.00
2019-01-17T08:23:37.758Z,100.00
2019-01-17T08:28:41.249Z,100.00
2019-01-17T08:33:44.675Z,100.00
2019-01-17T08:38:48.804Z,100.00
2019-01-17T08:43:52.442Z,100.00
2019-01-17T08:48:56.058Z,100.00
2019-01-17T08:53:59.516Z,100.00
2019-01-17T08:59:02.962Z,100.00
2019-01-17T09:04:06.477Z,100.00
2019-01-17T09:09:09.913Z,100.00
2019-01-17T09:14:13.351Z,100.00
2019-01-17T09:19:16.779Z,100.00
2019-01-17T09:24:20.221Z,100.00
2019-01-17T09:29:23.759Z,100.00
2019-01-17T09:34:27.203Z,100.00
2019-01-17T09:39:30.637Z,100.00
2019-01-17T09:44:34.081Z,100.00
2019-01-17T09:49:37.521Z,100.00
2019-01-17T09:54:40.963Z,99.94
2019-01-17T09:59:44.405Z,99.69
2019-01-17T10:04:47.844Z,99.78
2019-01-17T10:09:51.263Z,99.47
2019-01-17T10:14:54.709Z,100.00
2019-01-17T10:20:06.805Z,100.00
2019-01-17T10:25:29.378Z,95.06
2019-01-17T10:30:35.863Z,94.29
2019-01-17T10:36:02.915Z,92.30
2019-01-17T10:41:12.271Z,91.20
2019-01-17T10:46:30.669Z,92.21
2019-01-17T10:51:45.922Z,91.68
2019-01-17T10:57:19.401Z,90.61
2019-01-17T11:02:40.641Z,90.25
2019-01-17T11:07:49.608Z,88.68
2019-01-17T11:13:04.991Z,88.88
2019-01-17T11:18:30.883Z,85.47
2019-01-17T11:23:37.376Z,85.43
2019-01-17T11:28:50.066Z,85.99
2019-01-17T11:34:05.594Z,86.66
2019-01-17T11:39:36.228Z,85.67
2019-01-17T11:44:42.986Z,83.65
2019-01-17T11:50:08.979Z,84.32
2019-01-17T11:55:15.759Z,83.55
2019-01-17T12:00:39.918Z,84.66
2019-01-17T12:05:43.331Z,91.45
2019-01-17T12:11:06.211Z,94.18
2019-01-17T12:16:11.450Z,94.05
2019-01-17T12:21:25.412Z,99.44
2019-01-17T12:26:36.885Z,98.27
2019-01-17T12:31:59.807Z,100.00
2019-01-17T12:37:24.497Z,100.00
2019-01-17T12:42:33.132Z,100.00
2019-01-17T12:47:37.512Z,100.00
2019-01-17T12:52:40.941Z,100.00
2019-01-17T12:57:44.361Z,100.00
2019-01-17T13:02:47.871Z,100.00
2019-01-17T13:07:51.299Z,100.00
2019-01-17T13:12:54.741Z,100.00
2019-01-17T13:17:58.171Z,100.00
2019-01-17T13:23:01.590Z,100.00
2019-01-17T13:28:05.148Z,100.00
2019-01-17T13:33:09.390Z,100.00
2019-01-17T13:38:12.805Z,100.00
2019-01-17T13:43:16.230Z,100.00
2019-01-17T13:48:19.667Z,100.00
2019-01-17T13:53:23.093Z,100.00
2019-01-17T13:58:26.545Z,100.00
2019-01-17T14:03:29.970Z,100.00
2019-01-17T14:08:33.406Z,100.00
2019-01-17T14:13:36.848Z,100.00
2019-01-17T14:18:40.277Z,100.00
2019-01-17T14:23:43.877Z,100.00
2019-01-17T14:28:47.294Z,100.00
2019-01-17T14:33:50.706Z,100.00
2019-01-17T14:38:54.134Z,100.00
2019-01-17T14:43:57.532Z,100.00
2019-01-17T14:49:00.945Z,100.00
2019-01-17T14:54:04.516Z,100.00
2019-01-17T14:59:07.943Z,100.00
2019-01-17T15:04:11.363Z,100.00
2019-01-17T15:09:14.808Z,100.00
2019-01-17T15:14:18.233Z,100.00
2019-01-17T15:19:21.656Z,100.00
2019-01-17T15:24:25.103Z,100.00
2019-01-17T15:29:28.514Z,100.00
2019-01-17T15:34:31.934Z,100.00
2019-01-17T15:39:35.362Z,100.00
2019-01-17T15:44:38.773Z,100.00
2019-01-17T15:49:42.215Z,100.00
2019-01-17T15:54:45.657Z,100.00
2019-01-17T15:59:49.087Z,100.00
2019-01-17T16:04:52.538Z,100.00
2019-01-17T16:09:55.968Z,100.00
2019-01-17T16:14:59.507Z,100.00
2019-01-17T16:20:03.383Z,100.00
2019-01-17T16:25:09.328Z,100.00
2019-01-17T16:30:27.438Z,100.00
2019-01-17T16:35:30.859Z,100.00
2019-01-17T16:40:34.274Z,100.00
2019-01-17T16:45:37.699Z,100.00
2019-01-17T16:50:41.127Z,100.00
2019-01-17T16:55:44.562Z,100.00
2019-01-17T17:00:48.287Z,100.00
2019-01-17T17:05:51.705Z,100.00
2019-01-17T17:10:55.224Z,100.00
2019-01-17T17:15:58.652Z,100.00
2019-01-17T17:21:02.081Z,100.00
2019-01-17T17:26:05.579Z,100.00
2019-01-17T17:31:08.991Z,100.00
2019-01-17T17:36:12.414Z,100.00
2019-01-17T17:41:15.837Z,100.00
2019-01-17T17:46:19.285Z,100.00
2019-01-17T17:51:22.727Z,100.00
2019-01-17T17:56:26.332Z,100.00
2019-01-17T18:01:30.031Z,100.00
2019-01-17T18:06:33.532Z,100.00
2019-01-17T18:11:37.045Z,100.00
2019-01-17T18:16:40.474Z,100.00
2019-01-17T18:21:43.904Z,100.00
2019-01-17T18:26:48.180Z,100.00
2019-01-17T18:31:51.681Z,100.00
2019-01-17T18:36:55.094Z,100.00
2019-01-17T18:41:58.687Z,100.00
2019-01-17T18:47:02.110Z,100.00
2019-01-17T18:52:05.526Z,100.00
2019-01-17T18:57:08.940Z,100.00
2019-01-17T19:02:12.357Z,100.00
2019-01-17T19:07:16.120Z,100.00
2019-01-17T19:12:19.622Z,100.00
2019-01-17T19:17:23.048Z,100.00
2019-01-17T19:22:26.469Z,100.00
2019-01-17T19:27:29.904Z,100.00
2019-01-17T19:32:34.266Z,100.00
2019-01-17T19:37:37.838Z,100.00
2019-01-17T19:42:41.255Z,100.00
2019-01-17T19:47:44.738Z,100.00
2019-01-17T19:52:48.531Z,100.00
2019-01-17T19:57:51.931Z,100.00
2019-01-17T20:02:55.387Z,100.00
2019-01-17T20:07:58.971Z,100.00
2019-01-17T20:13:02.481Z,100.00
2019-01-17T20:18:06.114Z,100.00
2019-01-17T20:23:09.538Z,100.00
2019-01-17T20:28:12.972Z,100.00
2019-01-17T20:33:16.397Z,100.00
2019-01-17T20:38:19.815Z,100.00
2019-01-17T20:43:23.310Z,100.00
2019-01-17T20:48:26.732Z,100.00
2019-01-17T20:53:30.157Z,100.00
2019-01-17T20:58:33.632Z,100.00
2019-01-17T21:03:37.136Z,100.00
2019-01-17T21:08:40.576Z,100.00
2019-01-17T21:13:44.017Z,100.00
2019-01-17T21:18:47.439Z,100.00
2019-01-17T21:23:50.858Z,100.00
2019-01-17T21:28:54.286Z,100.00
2019-01-17T21:33:57.812Z,100.00
2019-01-17T21:39:01.359Z,100.00
2019-01-17T21:44:04.996Z,100.00
2019-01-17T21:49:08.427Z,100.00
2019-01-17T21:54:11.866Z,100.00
2019-01-17T21:59:15.294Z,100.00
2019-01-17T22:04:18.704Z,100.00
2019-01-17T22:09:22.155Z,100.00
2019-01-17T22:14:25.581Z,100.00
2019-01-17T22:19:29.105Z,100.00
2019-01-17T22:24:32.518Z,100.00
2019-01-17T22:29:35.954Z,100.00
2019-01-17T22:34:39.467Z,100.00
2019-01-17T22:39:42.964Z,100.00
2019-01-17T22:44:46.470Z,100.00
2019-01-17T22:49:49.972Z,100.00
2019-01-17T22:54:53.389Z,100.00
2019-01-17T22:59:56.820Z,100.00
2019-01-17T23:05:00.270Z,100.00
2019-01-17T23:10:05.919Z,100.00
2019-01-17T23:15:09.624Z,100.00
2019-01-17T23:20:13.124Z,100.00
2019-01-17T23:25:16.618Z,100.00
2019-01-17T23:30:20.190Z,100.00
2019-01-17T23:35:23.608Z,100.00
2019-01-17T23:40:27.033Z,100.00
2019-01-17T23:45:30.446Z,100.00
2019-01-17T23:50:33.873Z,100.00
2019-01-17T23:55:37.313Z,100.00
